Clara — A8ZE5 — position and weather

sailwx.info

Track history (hours):
 
Tides and Currents Weather Stations Pressure Air Temp Water Temp Dewpoint Dewpoint Depression Visibility Wind Speed Wind Dir Waves Ship Positions

Clara

Last reported at 2017-Oct-20 13:44 UTC. Time now 2017-Nov-19 10:38 UTC.
Position N 31°23' E 032°19'.
Warning: this ship's position is 29 days out of date.

Length 225 m; draft 12.4 m.

Type: Cargo ship. MMSI: 636092248.

Date/timePositionNaut miles runAvg speedWind from/ knotsBaromVisibWave heightAir tempDewpointWater temp
2017-Oct-20 13:44N 31°23' E 032°19'20 5.7
2017-Oct-20 10:13N 31°39' E 032°04'  
2017-Oct-18 00:17N 35°13' E 018°55'512.1
2017-Oct-17 23:52N 35°15' E 018°49'412.1
2017-Oct-17 23:30N 35°16' E 018°44'612.1
2017-Oct-17 23:01N 35°18' E 018°37'1412.0
2017-Oct-17 21:50N 35°23' E 018°20'411.8
2017-Oct-17 21:29N 35°24' E 018°16'13911.8
2017-Oct-17 09:43N 36°05' E 015°32'212.0
2017-Oct-17 09:30N 36°06' E 015°29'611.9
2017-Oct-17 08:59N 36°08' E 015°22'812.1
2017-Oct-17 08:21N 36°10' E 015°13'512.3
2017-Oct-17 07:56N 36°12' E 015°07'512.3
2017-Oct-17 07:30N 36°14' E 015°01'713.0
2017-Oct-17 07:00N 36°16' E 014°53'713.6
2017-Oct-17 06:30N 36°18' E 014°45'713.5
2017-Oct-17 05:59N 36°20' E 014°37'612.7
2017-Oct-17 05:31N 36°22' E 014°30'612.4
2017-Oct-17 05:00N 36°24' E 014°22'612.4
2017-Oct-17 04:30N 36°26' E 014°15'612.4
2017-Oct-17 04:00N 36°27' E 014°07'612.4
2017-Oct-17 03:30N 36°29' E 014°00'612.4
2017-Oct-17 03:00N 36°31' E 013°53'612.3
2017-Oct-17 02:30N 36°33' E 013°46'612.2
2017-Oct-17 02:00N 36°35' E 013°38'612.2
2017-Oct-17 01:31N 36°37' E 013°31'612.1
2017-Oct-17 01:00N 36°38' E 013°24'612.1
2017-Oct-17 00:30N 36°40' E 013°17'612.2
2017-Oct-17 00:01N 36°42' E 013°09'612.4
2017-Oct-16 23:30N 36°44' E 013°02'612.3
2017-Oct-16 23:00N 36°46' E 012°55'612.1
2017-Oct-16 22:30N 36°48' E 012°47'612.1
2017-Oct-16 22:00N 36°50' E 012°40'612.1
2017-Oct-16 21:30N 36°52' E 012°33'712.0
2017-Oct-16 20:55N 36°54' E 012°25'512.1
2017-Oct-16 20:30N 36°55' E 012°19'612.2
2017-Oct-16 20:00N 36°57' E 012°11'712.3
2017-Oct-16 19:24N 36°59' E 012°03'512.4
2017-Oct-16 19:00N 37°02' E 011°57'612.4
2017-Oct-16 18:30N 37°04' E 011°50'1112.4
2017-Oct-16 17:38N 37°09' E 011°38'212.2
2017-Oct-16 17:30N 37°10' E 011°36'1712.0
2017-Oct-16 16:05N 37°18' E 011°18'211.9
2017-Oct-16 15:55N 37°19' E 011°15'511.8
2017-Oct-16 15:30N 37°21' E 011°10'611.9
2017-Oct-16 15:00N 37°24' E 011°03'1312.1
2017-Oct-16 13:54N 37°28' E 010°47'512.2
2017-Oct-16 13:30N 37°29' E 010°41'5011.9
2017-Oct-16 09:17N 37°28' E 009°38'412.1
2017-Oct-16 08:59N 37°27' E 009°34'611.9
2017-Oct-16 08:27N 37°25' E 009°26'611.8
2017-Oct-16 07:58N 37°23' E 009°19'32611.6
2017-Oct-15 03:48N 36°56' E 002°31'412.1
2017-Oct-15 03:30N 36°55' E 002°27'612.0
2017-Oct-15 02:58N 36°55' E 002°19'512.0
2017-Oct-15 02:31N 36°54' E 002°12'1212.0
2017-Oct-15 01:28N 36°52' E 001°57'812.0
2017-Oct-15 00:49N 36°50' E 001°47'411.9
2017-Oct-15 00:29N 36°50' E 001°42'912.0
2017-Oct-14 23:42N 36°48' E 001°31'411.6
2017-Oct-14 23:19N 36°47' E 001°25'411.7
2017-Oct-14 23:00N 36°46' E 001°21'2211.3
2017-Oct-14 21:03N 36°43' E 000°53'511.4
2017-Oct-14 20:36N 36°42' E 000°47'211.6
2017-Oct-14 20:24N 36°42' E 000°44'911.8
2017-Oct-14 19:37N 36°40' E 000°33'111.9
2017-Oct-14 19:30N 36°40' E 000°31'611.9
2017-Oct-14 19:00N 36°38' E 000°24'611.9
2017-Oct-14 18:30N 36°37' E 000°17'611.8
2017-Oct-14 17:59N 36°36' E 000°09'611.9
2017-Oct-14 17:29N 36°35' E 000°02'611.8
2017-Oct-14 17:00N 36°34' W 000°05'611.8
2017-Oct-14 16:30N 36°33' W 000°12'611.9
2017-Oct-14 16:00N 36°32' W 000°20'611.8
2017-Oct-14 15:31N 36°31' W 000°27'612.0
2017-Oct-14 15:00N 36°30' W 000°34'612.1
2017-Oct-14 14:30N 36°29' W 000°42'612.0
2017-Oct-14 14:00N 36°28' W 000°49'612.0
2017-Oct-14 13:30N 36°27' W 000°56'612.1
2017-Oct-14 13:00N 36°25' W 001°04'612.0
2017-Oct-14 12:30N 36°24' W 001°11'612.0
2017-Oct-14 12:00N 36°23' W 001°18'612.1
2017-Oct-14 11:29N 36°22' W 001°26'612.7
2017-Oct-14 11:00N 36°21' W 001°33'712.5
2017-Oct-14 10:28N 36°20' W 001°42'712.4
2017-Oct-14 09:56N 36°19' W 001°50'16212.1
2017-Oct-13 20:33N 36°05' W 005°09'112.9
2017-Oct-13 20:30N 36°05' W 005°10'612.7
2017-Oct-13 20:00N 36°04' W 005°18'5 9.6
2017-Oct-13 19:30N 36°06' W 005°23'3 5.3
2017-Oct-13 19:00N 36°09' W 005°23'0 0.3
2017-Oct-13 18:30N 36°09' W 005°23'1 0.1
2017-Oct-13 10:53N 36°08' W 005°23'2 5.6
2017-Oct-13 10:31N 36°06' W 005°22'3 6.8
2017-Oct-13 10:01N 36°05' W 005°18'2 3.2
2017-Oct-13 09:29N 36°06' W 005°16'10 6.6
2017-Oct-13 07:56N 35°58' W 005°25'410.2
2017-Oct-13 07:30N 35°57' W 005°30'911.2
2017-Oct-13 06:41N 35°54' W 005°41'210.9
2017-Oct-13 06:30N 35°54' W 005°43'610.9
2017-Oct-13 05:56N 35°54' W 005°51'611.0
2017-Oct-13 05:25N 35°54' W 005°58'7511.4
2017-Oct-12 22:50N 36°10' W 007°29'410.9
2017-Oct-12 22:28N 36°11' W 007°33'510.9
2017-Oct-12 22:00N 36°12' W 007°39'611.8
2017-Oct-12 21:30N 36°14' W 007°46'1011.7
2017-Oct-12 20:39N 36°16' W 007°58'412.1
2017-Oct-12 20:20N 36°17' W 008°03'412.1
2017-Oct-12 20:00N 36°18' W 008°08'711.9
2017-Oct-12 19:25N 36°20' W 008°16'511.9
2017-Oct-12 18:58N 36°21' W 008°23'611.4
2017-Oct-12 18:28N 36°23' W 008°29'612.2
2017-Oct-12 18:00N 36°25' W 008°36'612.2
2017-Oct-12 17:29N 36°26' W 008°44'712.0
2017-Oct-12 16:56N 36°28' W 008°51'612.3
2017-Oct-12 16:28N 36°29' W 008°58'612.8
2017-Oct-12 16:00N 36°31' W 009°06'612.3
2017-Oct-12 15:29N 36°33' W 009°13'611.7
2017-Oct-12 14:59N 36°36' W 009°19'611.5
2017-Oct-12 14:29N 36°40' W 009°24'511.1
2017-Oct-12 14:00N 36°44' W 009°29'611.3
2017-Oct-12 13:27N 36°49' W 009°34'2712.0
2017-Oct-12 11:10N 37°16' W 009°42'211.9
2017-Oct-12 10:59N 37°18' W 009°42'611.7
2017-Oct-12 10:28N 37°23' W 009°44'611.7
2017-Oct-12 09:58N 37°29' W 009°45'811.6
2017-Oct-12 09:19N 37°37' W 009°47'711.6
2017-Oct-12 08:41N 37°44' W 009°49'312.0
2017-Oct-12 08:25N 37°47' W 009°50'712.0
2017-Oct-12 07:52N 37°53' W 009°52'412.7
2017-Oct-12 07:31N 37°58' W 009°53'612.5
2017-Oct-12 07:00N 38°04' W 009°55'612.2
2017-Oct-12 06:30N 38°10' W 009°57'611.7
2017-Oct-12 06:00N 38°16' W 009°59'611.5
2017-Oct-12 05:30N 38°21' W 010°00'611.6
2017-Oct-12 04:57N 38°27' W 010°02'511.6
2017-Oct-12 04:31N 38°32' W 010°04'611.5
2017-Oct-12 04:00N 38°38' W 010°06'611.2
2017-Oct-12 03:31N 38°44' W 010°06'611.5
2017-Oct-12 03:00N 38°49' W 010°05'611.9
2017-Oct-12 02:30N 38°55' W 010°06'611.9
2017-Oct-12 02:01N 39°01' W 010°06'612.0
2017-Oct-12 01:31N 39°07' W 010°06'612.1
2017-Oct-12 01:01N 39°13' W 010°06'611.9
2017-Oct-12 00:31N 39°19' W 010°05'611.4
2017-Oct-12 00:00N 39°25' W 010°06'611.6
2017-Oct-11 23:30N 39°31' W 010°06'611.6
2017-Oct-11 23:00N 39°37' W 010°06'611.6
2017-Oct-11 22:30N 39°42' W 010°07'611.7
2017-Oct-11 22:01N 39°48' W 010°07'611.7
2017-Oct-11 21:30N 39°54' W 010°07'611.5
2017-Oct-11 20:57N 40°01' W 010°07'511.5
2017-Oct-11 20:31N 40°06' W 010°07'611.8
2017-Oct-11 20:00N 40°12' W 010°06'  
Track history (hours):
 
Tides and Currents Weather Stations Pressure Air Temp Water Temp Dewpoint Dewpoint Depression Visibility Wind Speed Wind Dir Waves Ship Positions

Clara

Last reported at 2017-Oct-20 13:44 UTC. Time now 2017-Nov-19 10:38 UTC.
Position N 31°23' E 032°19'.
Warning: this ship's position is 29 days out of date.

Length 225 m; draft 12.4 m.

Type: Cargo ship. MMSI: 636092248.

Date/timePositionNaut miles runAvg speedWind from/ knotsBaromVisibWave heightAir tempDewpointWater temp
2017-Oct-20 13:44N 31°23' E 032°19'20 5.7
2017-Oct-20 10:13N 31°39' E 032°04'  
2017-Oct-18 00:17N 35°13' E 018°55'512.1
2017-Oct-17 23:52N 35°15' E 018°49'412.1
2017-Oct-17 23:30N 35°16' E 018°44'612.1
2017-Oct-17 23:01N 35°18' E 018°37'1412.0
2017-Oct-17 21:50N 35°23' E 018°20'411.8
2017-Oct-17 21:29N 35°24' E 018°16'13911.8
2017-Oct-17 09:43N 36°05' E 015°32'212.0
2017-Oct-17 09:30N 36°06' E 015°29'611.9
2017-Oct-17 08:59N 36°08' E 015°22'812.1
2017-Oct-17 08:21N 36°10' E 015°13'512.3
2017-Oct-17 07:56N 36°12' E 015°07'512.3
2017-Oct-17 07:30N 36°14' E 015°01'713.0
2017-Oct-17 07:00N 36°16' E 014°53'713.6
2017-Oct-17 06:30N 36°18' E 014°45'713.5
2017-Oct-17 05:59N 36°20' E 014°37'612.7
2017-Oct-17 05:31N 36°22' E 014°30'612.4
2017-Oct-17 05:00N 36°24' E 014°22'612.4
2017-Oct-17 04:30N 36°26' E 014°15'612.4
2017-Oct-17 04:00N 36°27' E 014°07'612.4
2017-Oct-17 03:30N 36°29' E 014°00'612.4
2017-Oct-17 03:00N 36°31' E 013°53'612.3
2017-Oct-17 02:30N 36°33' E 013°46'612.2
2017-Oct-17 02:00N 36°35' E 013°38'612.2
2017-Oct-17 01:31N 36°37' E 013°31'612.1
2017-Oct-17 01:00N 36°38' E 013°24'612.1
2017-Oct-17 00:30N 36°40' E 013°17'612.2
2017-Oct-17 00:01N 36°42' E 013°09'612.4
2017-Oct-16 23:30N 36°44' E 013°02'612.3
2017-Oct-16 23:00N 36°46' E 012°55'612.1
2017-Oct-16 22:30N 36°48' E 012°47'612.1
2017-Oct-16 22:00N 36°50' E 012°40'612.1
2017-Oct-16 21:30N 36°52' E 012°33'712.0
2017-Oct-16 20:55N 36°54' E 012°25'512.1
2017-Oct-16 20:30N 36°55' E 012°19'612.2
2017-Oct-16 20:00N 36°57' E 012°11'712.3
2017-Oct-16 19:24N 36°59' E 012°03'512.4
2017-Oct-16 19:00N 37°02' E 011°57'612.4
2017-Oct-16 18:30N 37°04' E 011°50'1112.4
2017-Oct-16 17:38N 37°09' E 011°38'212.2
2017-Oct-16 17:30N 37°10' E 011°36'1712.0
2017-Oct-16 16:05N 37°18' E 011°18'211.9
2017-Oct-16 15:55N 37°19' E 011°15'511.8
2017-Oct-16 15:30N 37°21' E 011°10'611.9
2017-Oct-16 15:00N 37°24' E 011°03'1312.1
2017-Oct-16 13:54N 37°28' E 010°47'512.2
2017-Oct-16 13:30N 37°29' E 010°41'5011.9
2017-Oct-16 09:17N 37°28' E 009°38'412.1
2017-Oct-16 08:59N 37°27' E 009°34'611.9
2017-Oct-16 08:27N 37°25' E 009°26'611.8
2017-Oct-16 07:58N 37°23' E 009°19'32611.6
2017-Oct-15 03:48N 36°56' E 002°31'412.1
2017-Oct-15 03:30N 36°55' E 002°27'612.0
2017-Oct-15 02:58N 36°55' E 002°19'512.0
2017-Oct-15 02:31N 36°54' E 002°12'1212.0
2017-Oct-15 01:28N 36°52' E 001°57'812.0
2017-Oct-15 00:49N 36°50' E 001°47'411.9
2017-Oct-15 00:29N 36°50' E 001°42'912.0
2017-Oct-14 23:42N 36°48' E 001°31'411.6
2017-Oct-14 23:19N 36°47' E 001°25'411.7
2017-Oct-14 23:00N 36°46' E 001°21'2211.3
2017-Oct-14 21:03N 36°43' E 000°53'511.4
2017-Oct-14 20:36N 36°42' E 000°47'211.6
2017-Oct-14 20:24N 36°42' E 000°44'911.8
2017-Oct-14 19:37N 36°40' E 000°33'111.9
2017-Oct-14 19:30N 36°40' E 000°31'611.9
2017-Oct-14 19:00N 36°38' E 000°24'611.9
2017-Oct-14 18:30N 36°37' E 000°17'611.8
2017-Oct-14 17:59N 36°36' E 000°09'611.9
2017-Oct-14 17:29N 36°35' E 000°02'611.8
2017-Oct-14 17:00N 36°34' W 000°05'611.8
2017-Oct-14 16:30N 36°33' W 000°12'611.9
2017-Oct-14 16:00N 36°32' W 000°20'611.8
2017-Oct-14 15:31N 36°31' W 000°27'612.0
2017-Oct-14 15:00N 36°30' W 000°34'612.1
2017-Oct-14 14:30N 36°29' W 000°42'612.0
2017-Oct-14 14:00N 36°28' W 000°49'612.0
2017-Oct-14 13:30N 36°27' W 000°56'612.1
2017-Oct-14 13:00N 36°25' W 001°04'612.0
2017-Oct-14 12:30N 36°24' W 001°11'612.0
2017-Oct-14 12:00N 36°23' W 001°18'612.1
2017-Oct-14 11:29N 36°22' W 001°26'612.7
2017-Oct-14 11:00N 36°21' W 001°33'712.5
2017-Oct-14 10:28N 36°20' W 001°42'712.4
2017-Oct-14 09:56N 36°19' W 001°50'16212.1
2017-Oct-13 20:33N 36°05' W 005°09'112.9
2017-Oct-13 20:30N 36°05' W 005°10'612.7
2017-Oct-13 20:00N 36°04' W 005°18'5 9.6
2017-Oct-13 19:30N 36°06' W 005°23'3 5.3
2017-Oct-13 19:00N 36°09' W 005°23'0 0.3
2017-Oct-13 18:30N 36°09' W 005°23'1 0.1
2017-Oct-13 10:53N 36°08' W 005°23'2 5.6
2017-Oct-13 10:31N 36°06' W 005°22'3 6.8
2017-Oct-13 10:01N 36°05' W 005°18'2 3.2
2017-Oct-13 09:29N 36°06' W 005°16'10 6.6
2017-Oct-13 07:56N 35°58' W 005°25'410.2
2017-Oct-13 07:30N 35°57' W 005°30'911.2
2017-Oct-13 06:41N 35°54' W 005°41'210.9
2017-Oct-13 06:30N 35°54' W 005°43'610.9
2017-Oct-13 05:56N 35°54' W 005°51'611.0
2017-Oct-13 05:25N 35°54' W 005°58'7511.4
2017-Oct-12 22:50N 36°10' W 007°29'410.9
2017-Oct-12 22:28N 36°11' W 007°33'510.9
2017-Oct-12 22:00N 36°12' W 007°39'611.8
2017-Oct-12 21:30N 36°14' W 007°46'1011.7
2017-Oct-12 20:39N 36°16' W 007°58'412.1
2017-Oct-12 20:20N 36°17' W 008°03'412.1
2017-Oct-12 20:00N 36°18' W 008°08'711.9
2017-Oct-12 19:25N 36°20' W 008°16'511.9
2017-Oct-12 18:58N 36°21' W 008°23'611.4
2017-Oct-12 18:28N 36°23' W 008°29'612.2
2017-Oct-12 18:00N 36°25' W 008°36'612.2
2017-Oct-12 17:29N 36°26' W 008°44'712.0
2017-Oct-12 16:56N 36°28' W 008°51'612.3
2017-Oct-12 16:28N 36°29' W 008°58'612.8
2017-Oct-12 16:00N 36°31' W 009°06'612.3
2017-Oct-12 15:29N 36°33' W 009°13'611.7
2017-Oct-12 14:59N 36°36' W 009°19'611.5
2017-Oct-12 14:29N 36°40' W 009°24'511.1
2017-Oct-12 14:00N 36°44' W 009°29'611.3
2017-Oct-12 13:27N 36°49' W 009°34'2712.0
2017-Oct-12 11:10N 37°16' W 009°42'211.9
2017-Oct-12 10:59N 37°18' W 009°42'611.7
2017-Oct-12 10:28N 37°23' W 009°44'611.7
2017-Oct-12 09:58N 37°29' W 009°45'811.6
2017-Oct-12 09:19N 37°37' W 009°47'711.6
2017-Oct-12 08:41N 37°44' W 009°49'312.0
2017-Oct-12 08:25N 37°47' W 009°50'712.0
2017-Oct-12 07:52N 37°53' W 009°52'412.7
2017-Oct-12 07:31N 37°58' W 009°53'612.5
2017-Oct-12 07:00N 38°04' W 009°55'612.2
2017-Oct-12 06:30N 38°10' W 009°57'611.7
2017-Oct-12 06:00N 38°16' W 009°59'611.5
2017-Oct-12 05:30N 38°21' W 010°00'611.6
2017-Oct-12 04:57N 38°27' W 010°02'511.6
2017-Oct-12 04:31N 38°32' W 010°04'611.5
2017-Oct-12 04:00N 38°38' W 010°06'611.2
2017-Oct-12 03:31N 38°44' W 010°06'611.5
2017-Oct-12 03:00N 38°49' W 010°05'611.9
2017-Oct-12 02:30N 38°55' W 010°06'611.9
2017-Oct-12 02:01N 39°01' W 010°06'612.0
2017-Oct-12 01:31N 39°07' W 010°06'612.1
2017-Oct-12 01:01N 39°13' W 010°06'611.9
2017-Oct-12 00:31N 39°19' W 010°05'611.4
2017-Oct-12 00:00N 39°25' W 010°06'611.6
2017-Oct-11 23:30N 39°31' W 010°06'611.6
2017-Oct-11 23:00N 39°37' W 010°06'611.6
2017-Oct-11 22:30N 39°42' W 010°07'611.7
2017-Oct-11 22:01N 39°48' W 010°07'611.7
2017-Oct-11 21:30N 39°54' W 010°07'611.5
2017-Oct-11 20:57N 40°01' W 010°07'511.5
2017-Oct-11 20:31N 40°06' W 010°07'611.8
2017-Oct-11 20:00N 40°12' W 010°06'  

Dump ship's entire track history